createdAt,value
2023-07-25T00:01:59.086Z,21.71
2023-07-25T00:04:25.685Z,21.78
2023-07-25T00:06:52.102Z,21.76
2023-07-25T00:09:18.551Z,21.62
2023-07-25T00:11:47.082Z,21.57
2023-07-25T00:14:13.510Z,21.61
2023-07-25T00:16:39.975Z,21.40
2023-07-25T00:19:06.414Z,21.36
2023-07-25T00:21:33.134Z,21.37
2023-07-25T00:23:59.895Z,21.48
2023-07-25T00:26:26.314Z,21.40
2023-07-25T00:28:52.805Z,21.25
2023-07-25T00:31:19.403Z,21.40
2023-07-25T00:33:45.991Z,21.41
2023-07-25T00:36:12.429Z,21.21
2023-07-25T00:38:38.895Z,21.10
2023-07-25T00:41:05.377Z,21.24
2023-07-25T00:43:31.849Z,21.27
2023-07-25T00:45:58.404Z,21.30
2023-07-25T00:48:24.916Z,21.23
2023-07-25T00:50:51.964Z,21.08
2023-07-25T00:53:18.526Z,20.97
2023-07-25T00:55:45.771Z,20.96
2023-07-25T00:58:12.249Z,20.92
2023-07-25T01:00:39.565Z,20.97
2023-07-25T01:03:06.839Z,21.02
2023-07-25T01:05:39.694Z,20.98
2023-07-25T01:08:06.403Z,21.06
2023-07-25T01:10:33.568Z,21.09
2023-07-25T01:13:00.006Z,21.05
2023-07-25T01:15:27.930Z,20.93
2023-07-25T01:17:54.775Z,21.04
2023-07-25T01:20:22.199Z,21.12
2023-07-25T01:22:50.672Z,21.12
2023-07-25T01:25:17.348Z,21.10
2023-07-25T01:27:43.821Z,21.04
2023-07-25T01:30:10.527Z,21.06
2023-07-25T01:32:36.979Z,21.04
2023-07-25T01:35:04.102Z,21.11
2023-07-25T01:37:30.536Z,21.23
2023-07-25T01:39:56.984Z,21.24
2023-07-25T01:42:23.415Z,21.19
2023-07-25T01:44:49.858Z,21.13
2023-07-25T01:47:16.283Z,21.12
2023-07-25T01:49:42.708Z,21.14
2023-07-25T01:52:09.142Z,21.20
2023-07-25T01:54:35.566Z,21.28
2023-07-25T01:57:02.017Z,21.28
2023-07-25T01:59:29.247Z,21.22
2023-07-25T02:01:55.670Z,21.18
2023-07-25T02:04:22.164Z,21.11
2023-07-25T02:06:48.609Z,21.05
2023-07-25T02:09:15.037Z,21.06
2023-07-25T02:11:41.539Z,21.08
2023-07-25T02:14:07.970Z,21.10
2023-07-25T02:16:37.992Z,21.17
2023-07-25T02:19:05.027Z,21.07
2023-07-25T02:21:31.756Z,20.99
2023-07-25T02:23:58.520Z,21.02
2023-07-25T02:26:25.226Z,20.97
2023-07-25T02:28:51.695Z,20.97
2023-07-25T02:31:19.292Z,20.65
2023-07-25T03:34:06.008Z,19.05
2023-07-25T03:36:33.920Z,18.88
2023-07-25T03:39:00.489Z,18.88
2023-07-25T03:41:29.719Z,18.89
2023-07-25T03:43:56.632Z,18.75
2023-07-25T03:46:23.173Z,18.60
2023-07-25T03:48:50.250Z,18.52
2023-07-25T03:51:16.763Z,18.52
2023-07-25T03:53:43.303Z,18.55
2023-07-25T03:56:09.746Z,18.59
2023-07-25T03:58:36.224Z,18.70
2023-07-25T04:01:02.660Z,18.56
2023-07-25T04:03:32.141Z,18.47
2023-07-25T04:05:58.806Z,18.44
2023-07-25T04:08:25.404Z,18.41
2023-07-25T04:10:52.014Z,18.44
2023-07-25T04:13:18.921Z,18.54
2023-07-25T04:15:45.392Z,18.62
2023-07-25T04:18:12.005Z,18.57
2023-07-25T04:20:38.677Z,18.58
2023-07-25T04:23:05.372Z,18.71
2023-07-25T04:25:32.047Z,18.67
2023-07-25T04:27:58.675Z,18.71
2023-07-25T04:30:25.380Z,18.65
2023-07-25T04:32:52.341Z,18.51
2023-07-25T04:35:19.142Z,18.60
2023-07-25T04:37:45.612Z,18.64
2023-07-25T04:40:13.077Z,18.69
2023-07-25T04:42:39.769Z,18.60
2023-07-25T04:45:06.822Z,18.52
2023-07-25T04:47:33.331Z,18.62
2023-07-25T04:50:00.763Z,18.65
2023-07-25T04:52:27.404Z,18.79
2023-07-25T04:54:58.406Z,18.87
2023-07-25T04:57:28.459Z,18.87
2023-07-25T04:59:54.938Z,18.84
2023-07-25T05:02:22.316Z,18.79
2023-07-25T05:04:48.850Z,18.79
2023-07-25T05:07:16.525Z,18.76
2023-07-25T05:09:43.064Z,18.75
2023-07-25T05:12:15.462Z,18.89
2023-07-25T05:14:42.295Z,18.94
2023-07-25T05:17:08.982Z,18.80
2023-07-25T05:19:35.694Z,18.87
2023-07-25T05:22:02.581Z,18.88
2023-07-25T05:24:29.601Z,18.83
2023-07-25T05:26:58.459Z,18.78
2023-07-25T05:29:26.972Z,18.88
2023-07-25T05:31:53.676Z,18.97
2023-07-25T05:34:20.202Z,18.96
2023-07-25T05:36:46.853Z,18.95
2023-07-25T05:39:13.645Z,18.92
2023-07-25T05:41:41.060Z,18.83
2023-07-25T05:44:10.433Z,18.83
2023-07-25T05:46:37.287Z,18.87
2023-07-25T05:49:06.926Z,19.00
2023-07-25T05:51:34.851Z,19.02
2023-07-25T05:54:01.276Z,19.02
2023-07-25T05:56:27.832Z,18.89
2023-07-25T05:58:54.978Z,18.94
2023-07-25T06:01:21.648Z,18.89
2023-07-25T06:03:48.126Z,18.90
2023-07-25T06:06:14.564Z,18.96
2023-07-25T06:08:40.985Z,19.07
2023-07-25T06:11:07.628Z,19.13
2023-07-25T06:13:34.978Z,19.17
2023-07-25T06:16:01.554Z,19.22
2023-07-25T06:18:28.114Z,19.09
2023-07-25T06:20:54.608Z,19.20
2023-07-25T06:23:21.852Z,19.27
2023-07-25T06:25:48.455Z,19.35
2023-07-25T06:28:18.841Z,19.28
2023-07-25T06:30:45.490Z,19.14
2023-07-25T06:33:15.648Z,19.21
2023-07-25T06:35:42.343Z,19.53
2023-07-25T06:38:08.788Z,19.54
2023-07-25T06:40:35.259Z,19.24
2023-07-25T06:43:01.694Z,19.15
2023-07-25T06:45:28.143Z,19.21
2023-07-25T06:47:54.669Z,19.56
2023-07-25T06:50:21.737Z,19.20
2023-07-25T06:52:48.210Z,19.23
2023-07-25T06:55:15.001Z,19.30
2023-07-25T06:57:41.417Z,19.55
2023-07-25T07:00:09.075Z,19.83
2023-07-25T07:02:35.634Z,20.00
2023-07-25T07:05:08.707Z,19.88
2023-07-25T07:07:42.336Z,20.18
2023-07-25T07:10:09.246Z,20.31
2023-07-25T07:12:35.751Z,20.26
2023-07-25T07:15:02.419Z,20.14
2023-07-25T07:17:28.895Z,20.34
2023-07-25T07:19:55.998Z,20.02
2023-07-25T07:22:22.551Z,19.77
2023-07-25T07:24:49.053Z,19.59
2023-07-25T07:27:15.587Z,19.85
2023-07-25T07:29:42.058Z,20.19
2023-07-25T07:32:08.971Z,20.32
2023-07-25T07:34:35.486Z,20.40
2023-07-25T07:37:01.932Z,20.40
2023-07-25T07:39:28.515Z,20.31
2023-07-25T07:41:55.308Z,20.36
2023-07-25T07:44:23.730Z,20.48
2023-07-25T07:46:51.888Z,20.19
2023-07-25T07:49:18.359Z,19.99
2023-07-25T07:51:51.638Z,20.06
2023-07-25T07:54:24.153Z,20.26
2023-07-25T07:56:50.660Z,20.47
2023-07-25T07:59:17.096Z,20.51
2023-07-25T08:01:44.031Z,20.52
2023-07-25T08:04:10.664Z,20.38
2023-07-25T08:06:37.132Z,20.08
2023-07-25T08:09:03.833Z,20.00
2023-07-25T08:11:30.518Z,20.04
2023-07-25T08:13:57.299Z,20.16
2023-07-25T08:16:25.909Z,20.30
2023-07-25T08:18:52.588Z,20.31
2023-07-25T08:21:19.089Z,20.25
2023-07-25T08:23:45.626Z,20.46
2023-07-25T08:26:12.134Z,20.56
2023-07-25T08:28:41.717Z,20.62
2023-07-25T08:31:08.439Z,20.63
2023-07-25T08:33:37.915Z,20.56
2023-07-25T08:36:05.258Z,20.57
2023-07-25T08:38:32.305Z,20.79
2023-07-25T08:41:25.166Z,20.79
2023-07-25T08:43:54.109Z,21.07
2023-07-25T08:46:21.578Z,21.23
2023-07-25T08:48:48.915Z,21.36
2023-07-25T08:51:22.639Z,21.58
2023-07-25T08:54:15.172Z,21.84
2023-07-25T08:56:42.829Z,22.13
2023-07-25T08:59:13.069Z,22.16
2023-07-25T09:01:39.829Z,22.07
2023-07-25T09:04:09.249Z,22.30
2023-07-25T09:06:36.351Z,22.34
2023-07-25T09:09:03.580Z,22.40
2023-07-25T09:11:30.525Z,22.44
2023-07-25T09:13:57.188Z,22.60
2023-07-25T09:16:23.803Z,22.67
2023-07-25T09:18:50.435Z,22.90
2023-07-25T09:21:17.117Z,23.05
2023-07-25T09:23:58.815Z,23.26
2023-07-25T09:26:27.830Z,23.28
2023-07-25T09:29:00.917Z,23.33
2023-07-25T09:31:29.305Z,23.49
2023-07-25T09:33:57.518Z,23.66
2023-07-25T09:36:24.540Z,23.54
2023-07-25T09:38:53.489Z,23.53
2023-07-25T09:41:22.294Z,23.82
2023-07-25T09:43:49.338Z,23.93
2023-07-25T09:46:15.975Z,23.86
2023-07-25T09:48:47.784Z,24.03
2023-07-25T09:51:14.927Z,24.19
2023-07-25T09:53:45.810Z,24.03
2023-07-25T09:56:12.509Z,24.06
2023-07-25T09:58:50.862Z,24.28
2023-07-25T10:01:26.788Z,24.55
2023-07-25T10:03:53.609Z,24.46
2023-07-25T10:06:20.875Z,24.33
2023-07-25T10:08:48.676Z,24.32
2023-07-25T10:11:15.480Z,24.58
2023-07-25T10:13:42.610Z,24.66
2023-07-25T10:16:11.661Z,24.69
2023-07-25T10:18:38.386Z,24.54
2023-07-25T10:21:04.908Z,24.84
2023-07-25T10:23:38.210Z,24.88
2023-07-25T10:26:12.254Z,24.94
2023-07-25T10:28:39.955Z,25.11
2023-07-25T10:31:08.857Z,24.96
2023-07-25T10:33:43.755Z,24.94
2023-07-25T10:36:24.294Z,24.78
2023-07-25T10:38:51.315Z,24.98
2023-07-25T10:41:17.870Z,25.06
2023-07-25T10:43:50.618Z,25.10
2023-07-25T10:46:19.673Z,25.12
2023-07-25T10:48:47.969Z,25.12
2023-07-25T10:51:16.551Z,25.27
2023-07-25T10:54:13.666Z,25.24
2023-07-25T10:56:41.204Z,25.59
2023-07-25T10:59:12.395Z,25.79
2023-07-25T11:01:48.936Z,25.64
2023-07-25T11:04:28.555Z,25.53
2023-07-25T11:07:14.503Z,25.70
2023-07-25T11:09:43.118Z,25.65
2023-07-25T11:12:11.374Z,25.51
2023-07-25T11:14:45.390Z,25.65
2023-07-25T11:17:13.065Z,25.94
2023-07-25T11:19:39.943Z,25.88
2023-07-25T11:22:13.316Z,25.84
2023-07-25T11:24:44.753Z,25.98
2023-07-25T11:27:12.203Z,26.05
2023-07-25T11:29:38.740Z,26.03
2023-07-25T11:32:05.594Z,25.98
2023-07-25T11:34:32.062Z,25.72
2023-07-25T11:36:58.590Z,25.63
2023-07-25T11:39:25.198Z,25.94
2023-07-25T11:41:51.786Z,26.31
2023-07-25T11:44:20.241Z,26.21
2023-07-25T11:46:55.790Z,26.07
2023-07-25T11:49:40.077Z,25.75
2023-07-25T11:52:09.248Z,25.96
2023-07-25T11:54:36.455Z,26.08
2023-07-25T11:57:03.246Z,26.31
2023-07-25T11:59:29.758Z,26.26
2023-07-25T12:02:05.933Z,26.27
2023-07-25T12:04:32.501Z,26.38
2023-07-25T12:07:00.138Z,26.46
2023-07-25T12:09:29.734Z,26.32
2023-07-25T12:11:56.273Z,26.25
2023-07-25T12:14:23.335Z,26.28
2023-07-25T12:16:49.836Z,26.07
2023-07-25T12:19:16.383Z,26.20
2023-07-25T12:21:44.934Z,26.16
2023-07-25T12:24:13.481Z,26.07
2023-07-25T12:26:52.951Z,26.02
2023-07-25T12:29:25.483Z,26.11
2023-07-25T12:31:53.040Z,26.12
2023-07-25T12:34:20.024Z,26.27
2023-07-25T12:36:47.780Z,26.28
2023-07-25T12:39:14.796Z,26.15
2023-07-25T12:41:43.615Z,26.28
2023-07-25T12:44:11.033Z,26.33
2023-07-25T12:46:41.304Z,26.15
2023-07-25T12:49:07.999Z,26.19
2023-07-25T12:51:34.688Z,26.14
2023-07-25T12:54:01.583Z,26.16
2023-07-25T12:56:28.135Z,26.19
2023-07-25T12:58:55.870Z,26.25
2023-07-25T13:01:23.195Z,26.20
2023-07-25T13:03:49.962Z,26.16
2023-07-25T13:06:16.521Z,26.11
2023-07-25T13:08:43.014Z,26.13
2023-07-25T13:11:09.726Z,26.16
2023-07-25T13:13:36.201Z,26.12
2023-07-25T13:16:04.799Z,26.11
2023-07-25T13:18:31.415Z,26.14
2023-07-25T13:20:57.998Z,26.04
2023-07-25T13:23:24.464Z,26.07
2023-07-25T13:25:51.069Z,26.00
2023-07-25T13:28:17.794Z,26.07
2023-07-25T13:30:44.510Z,26.05
2023-07-25T13:33:11.331Z,26.06
2023-07-25T13:35:38.038Z,26.10
2023-07-25T13:38:04.707Z,26.03
2023-07-25T13:40:31.319Z,26.04
2023-07-25T13:42:57.748Z,26.12
2023-07-25T13:45:34.354Z,26.23
2023-07-25T13:48:04.729Z,26.24
2023-07-25T13:50:38.722Z,26.15
2023-07-25T13:53:17.511Z,26.08
2023-07-25T13:55:43.954Z,26.01
2023-07-25T13:58:22.950Z,25.98
2023-07-25T14:00:49.950Z,25.98
2023-07-25T14:03:16.367Z,25.98
2023-07-25T14:05:42.915Z,26.00
2023-07-25T14:08:09.512Z,26.02
2023-07-25T14:10:37.177Z,25.98
2023-07-25T14:13:03.863Z,25.99
2023-07-25T14:15:31.766Z,25.96
2023-07-25T14:17:58.607Z,25.97
2023-07-25T14:20:25.788Z,25.99
2023-07-25T14:22:52.247Z,25.96
2023-07-25T14:25:18.747Z,25.91
2023-07-25T14:27:45.285Z,25.90
2023-07-25T14:30:12.590Z,25.92
2023-07-25T14:32:39.110Z,25.96
2023-07-25T14:35:06.005Z,26.01
2023-07-25T14:37:44.144Z,26.11
2023-07-25T14:40:18.975Z,26.11
2023-07-25T14:42:45.552Z,26.12
2023-07-25T14:45:12.091Z,26.13
2023-07-25T14:47:38.819Z,26.08
2023-07-25T14:50:06.005Z,25.98
2023-07-25T14:52:32.752Z,25.92
2023-07-25T14:54:59.273Z,25.92
2023-07-25T14:57:25.777Z,25.97
2023-07-25T14:59:52.372Z,26.04
2023-07-25T15:02:19.052Z,26.06
2023-07-25T15:04:45.692Z,26.10
2023-07-25T15:07:12.221Z,26.17
2023-07-25T15:09:38.753Z,26.15
2023-07-25T15:12:05.782Z,26.11
2023-07-25T15:14:32.273Z,26.02
2023-07-25T15:16:58.815Z,26.00
2023-07-25T15:19:28.347Z,25.97
2023-07-25T15:21:55.334Z,25.97
2023-07-25T15:24:21.896Z,25.96
2023-07-25T15:26:50.371Z,25.95
2023-07-25T15:29:16.863Z,25.96
2023-07-25T15:31:43.748Z,25.95
2023-07-25T15:34:10.358Z,25.99
2023-07-25T15:36:36.990Z,26.00
2023-07-25T15:39:03.895Z,25.99
2023-07-25T15:41:31.144Z,25.98
2023-07-25T15:43:57.913Z,25.98
2023-07-25T15:46:24.375Z,26.03
2023-07-25T15:48:50.993Z,26.04
2023-07-25T15:51:18.163Z,26.00
2023-07-25T15:53:44.807Z,26.02
2023-07-25T15:56:11.953Z,26.03
2023-07-25T15:58:38.413Z,26.08
2023-07-25T16:01:05.107Z,26.16
2023-07-25T16:03:31.733Z,26.20
2023-07-25T16:05:58.283Z,26.16
2023-07-25T16:08:25.730Z,26.21
2023-07-25T16:10:52.254Z,26.19
2023-07-25T16:13:18.888Z,26.13
2023-07-25T16:15:47.429Z,26.07
2023-07-25T16:18:14.653Z,26.11
2023-07-25T16:20:41.255Z,26.11
2023-07-25T16:23:07.872Z,26.07
2023-07-25T16:25:34.324Z,26.02
2023-07-25T16:28:01.033Z,25.99
2023-07-25T16:30:27.823Z,25.98
2023-07-25T16:32:54.797Z,26.00
2023-07-25T16:35:21.299Z,26.05
2023-07-25T16:37:49.015Z,26.08
2023-07-25T16:40:15.612Z,26.25
2023-07-25T16:42:42.271Z,26.38
2023-07-25T16:45:09.320Z,26.48
2023-07-25T16:47:35.933Z,26.47
2023-07-25T16:50:02.639Z,26.45
2023-07-25T16:52:29.448Z,26.46
2023-07-25T16:54:55.897Z,26.43
2023-07-25T16:57:22.491Z,26.41
2023-07-25T16:59:49.158Z,26.46
2023-07-25T17:02:15.732Z,26.42
2023-07-25T17:04:43.907Z,26.35
2023-07-25T17:07:10.437Z,26.35
2023-07-25T17:09:36.938Z,26.31
2023-07-25T17:12:04.565Z,26.25
2023-07-25T17:14:31.379Z,26.18
2023-07-25T17:16:57.859Z,26.14
2023-07-25T17:19:24.277Z,26.17
2023-07-25T17:21:50.804Z,26.21
2023-07-25T17:24:17.393Z,26.25
2023-07-25T17:26:43.971Z,26.19
2023-07-25T17:29:10.501Z,26.16
2023-07-25T17:31:37.672Z,26.13
2023-07-25T17:34:04.822Z,26.11
2023-07-25T17:36:31.472Z,26.11
2023-07-25T17:38:58.083Z,26.10
2023-07-25T17:41:24.910Z,26.05
2023-07-25T17:43:51.421Z,26.04
2023-07-25T17:46:17.917Z,26.03
2023-07-25T17:48:44.361Z,25.98
2023-07-25T17:51:11.106Z,25.94
2023-07-25T17:53:38.059Z,25.89
2023-07-25T17:56:07.516Z,25.88
2023-07-25T17:58:34.230Z,25.81
2023-07-25T18:01:01.176Z,25.81
2023-07-25T18:03:27.969Z,25.80
2023-07-25T18:05:54.535Z,25.78
2023-07-25T18:08:21.198Z,25.77
2023-07-25T18:10:48.111Z,25.75
2023-07-25T18:13:14.743Z,25.72
2023-07-25T18:15:41.290Z,25.66
2023-07-25T18:18:08.037Z,25.60
2023-07-25T18:20:34.478Z,25.51
2023-07-25T18:23:00.945Z,25.42
2023-07-25T18:25:27.412Z,25.40
2023-07-25T18:27:53.981Z,25.40
2023-07-25T18:30:20.534Z,25.42
2023-07-25T18:32:47.160Z,25.38
2023-07-25T18:35:16.692Z,25.32
2023-07-25T18:37:45.747Z,25.21
2023-07-25T18:40:12.498Z,25.20
2023-07-25T18:42:39.160Z,25.13
2023-07-25T18:45:06.461Z,25.05
2023-07-25T18:47:35.484Z,24.98
2023-07-25T18:50:02.597Z,24.88
2023-07-25T18:52:29.584Z,24.86
2023-07-25T18:54:56.069Z,24.76
2023-07-25T18:57:22.716Z,24.64
2023-07-25T18:59:49.689Z,24.55
2023-07-25T19:02:16.735Z,24.50
2023-07-25T19:04:44.573Z,24.50
2023-07-25T19:07:15.769Z,24.49
2023-07-25T19:09:43.391Z,24.38
2023-07-25T19:12:10.217Z,24.30
2023-07-25T19:14:36.853Z,24.32
2023-07-25T19:17:03.497Z,24.28
2023-07-25T19:19:30.051Z,24.15
2023-07-25T19:21:56.480Z,24.19
2023-07-25T19:24:25.890Z,24.12
2023-07-25T19:26:53.292Z,24.00
2023-07-25T19:29:20.249Z,24.06
2023-07-25T19:31:46.709Z,24.11
2023-07-25T19:34:14.148Z,24.14
2023-07-25T19:36:40.738Z,24.01
2023-07-25T19:39:07.356Z,23.88
2023-07-25T19:41:36.404Z,23.80
2023-07-25T19:44:07.375Z,23.87
2023-07-25T19:46:34.356Z,23.93
2023-07-25T19:49:01.308Z,23.95
2023-07-25T19:51:27.822Z,23.95
2023-07-25T19:53:54.335Z,23.94
2023-07-25T19:56:20.780Z,23.84
2023-07-25T19:58:47.262Z,23.76
2023-07-25T20:01:14.389Z,23.68
2023-07-25T20:03:41.421Z,23.56
2023-07-25T20:06:12.549Z,23.48
2023-07-25T20:08:39.124Z,23.46
2023-07-25T20:11:05.671Z,23.54
2023-07-25T20:13:33.198Z,23.55
2023-07-25T20:16:00.051Z,23.56
2023-07-25T20:18:27.776Z,23.58
2023-07-25T20:21:09.867Z,23.57
2023-07-25T20:23:37.846Z,23.65
2023-07-25T20:26:04.859Z,23.58
2023-07-25T20:28:31.380Z,23.44
2023-07-25T20:30:57.892Z,23.34
2023-07-25T20:33:24.492Z,23.33
2023-07-25T20:35:51.962Z,23.39
2023-07-25T20:38:18.731Z,23.42
2023-07-25T20:40:45.225Z,23.43
2023-07-25T20:43:11.708Z,23.38
2023-07-25T20:45:38.197Z,23.41
2023-07-25T20:48:05.150Z,23.35
2023-07-25T20:50:33.531Z,23.25
2023-07-25T20:53:00.366Z,23.31
2023-07-25T20:55:26.776Z,23.33
2023-07-25T20:57:53.215Z,23.21
2023-07-25T21:00:19.854Z,23.15
2023-07-25T21:02:49.917Z,23.21
2023-07-25T21:05:16.761Z,23.10
2023-07-25T21:07:43.399Z,23.05
2023-07-25T21:10:10.326Z,23.13
2023-07-25T21:12:38.291Z,23.18
2023-07-25T21:15:06.978Z,23.19
2023-07-25T21:17:33.475Z,23.16
2023-07-25T21:19:59.942Z,23.12
2023-07-25T21:22:26.399Z,23.11
2023-07-25T21:24:52.925Z,23.12
2023-07-25T21:27:20.996Z,23.17
2023-07-25T21:29:47.807Z,23.11
2023-07-25T21:32:14.324Z,23.03
2023-07-25T21:34:40.811Z,23.04
2023-07-25T21:37:07.297Z,23.06
2023-07-25T21:39:35.392Z,23.05
2023-07-25T21:42:01.999Z,23.04
2023-07-25T21:44:28.601Z,22.97
2023-07-25T21:46:55.142Z,22.90
2023-07-25T21:49:22.677Z,22.89
2023-07-25T21:51:49.340Z,22.85
2023-07-25T21:54:15.911Z,22.72
2023-07-25T21:56:42.392Z,22.71
2023-07-25T21:59:08.957Z,22.75
2023-07-25T22:01:35.491Z,22.77
2023-07-25T22:04:02.338Z,22.85
2023-07-25T22:06:30.002Z,22.80
2023-07-25T22:08:56.724Z,22.67
2023-07-25T22:11:23.246Z,22.60
2023-07-25T22:13:49.832Z,22.56
2023-07-25T22:16:17.594Z,22.61
2023-07-25T22:18:44.847Z,22.58
2023-07-25T22:21:11.528Z,22.50
2023-07-25T22:23:38.445Z,22.46
2023-07-25T22:26:05.309Z,22.42
2023-07-25T22:28:32.165Z,22.43
2023-07-25T22:31:02.146Z,22.40
2023-07-25T22:33:28.856Z,22.44
2023-07-25T22:35:55.402Z,22.43
2023-07-25T22:38:21.856Z,22.50
2023-07-25T22:40:48.360Z,22.60
2023-07-25T22:43:14.854Z,22.67
2023-07-25T22:45:41.395Z,22.70
2023-07-25T22:48:08.177Z,22.68
2023-07-25T22:50:34.672Z,22.72
2023-07-25T22:53:01.326Z,22.69
2023-07-25T22:55:28.724Z,22.60
2023-07-25T22:57:55.506Z,22.56
2023-07-25T23:00:22.089Z,22.55
2023-07-25T23:02:49.860Z,22.59
2023-07-25T23:05:16.472Z,22.48
2023-07-25T23:07:42.905Z,22.46
2023-07-25T23:10:09.713Z,22.45
2023-07-25T23:12:36.231Z,22.42
2023-07-25T23:15:03.011Z,22.27
2023-07-25T23:17:30.758Z,22.20
2023-07-25T23:19:57.278Z,22.11
2023-07-25T23:22:23.774Z,22.12
2023-07-25T23:24:50.275Z,22.05
2023-07-25T23:27:16.854Z,21.95
2023-07-25T23:29:43.494Z,21.86
2023-07-25T23:32:10.027Z,21.86
2023-07-25T23:34:48.685Z,21.76
2023-07-25T23:37:16.090Z,21.68
2023-07-25T23:39:42.995Z,21.66
2023-07-25T23:42:10.052Z,21.66
2023-07-25T23:44:36.730Z,21.63
2023-07-25T23:47:05.333Z,21.58
2023-07-25T23:49:33.944Z,21.51
2023-07-25T23:52:00.376Z,21.47
2023-07-25T23:54:27.309Z,21.49
2023-07-25T23:56:53.872Z,21.44
2023-07-25T23:59:20.690Z,21.43
